createdAt,value
2023-09-29T00:00:24.335Z,11.87
2023-09-29T00:01:24.386Z,12.01
2023-09-29T00:02:24.357Z,12.08
2023-09-29T00:03:24.437Z,12.13
2023-09-29T00:04:24.323Z,12.04
2023-09-29T00:05:24.319Z,12.07
2023-09-29T00:06:24.271Z,11.81
2023-09-29T00:07:24.260Z,11.93
2023-09-29T00:08:24.357Z,11.94
2023-09-29T00:09:24.246Z,11.87
2023-09-29T00:10:24.250Z,11.97
2023-09-29T00:11:24.328Z,11.97
2023-09-29T00:12:24.204Z,11.84
2023-09-29T00:13:24.194Z,11.96
2023-09-29T00:14:24.292Z,11.85
2023-09-29T00:15:24.207Z,12.00
2023-09-29T00:16:24.170Z,11.87
2023-09-29T00:17:24.171Z,12.01
2023-09-29T00:18:24.313Z,12.01
2023-09-29T00:19:24.161Z,12.00
2023-09-29T00:20:24.134Z,11.97
2023-09-29T00:21:24.129Z,12.00
2023-09-29T00:22:24.108Z,12.00
2023-09-29T00:23:24.102Z,11.94
2023-09-29T00:24:24.090Z,11.94
2023-09-29T00:25:24.060Z,11.87
2023-09-29T00:26:24.181Z,11.85
2023-09-29T00:27:24.053Z,11.88
2023-09-29T00:28:24.029Z,11.90
2023-09-29T00:29:24.027Z,11.98
2023-09-29T00:30:24.081Z,12.03
2023-09-29T00:31:24.069Z,11.98
2023-09-29T00:32:24.011Z,12.08
2023-09-29T00:33:24.033Z,12.13
2023-09-29T00:34:23.958Z,12.03
2023-09-29T00:35:23.986Z,12.05
2023-09-29T00:36:23.950Z,12.01
2023-09-29T00:37:23.931Z,11.97
2023-09-29T00:38:23.996Z,11.90
2023-09-29T00:39:23.940Z,11.97
2023-09-29T00:40:23.896Z,11.82
2023-09-29T00:41:24.030Z,11.84
2023-09-29T00:42:23.892Z,11.94
2023-09-29T00:43:23.862Z,12.01
2023-09-29T00:44:23.881Z,11.96
2023-09-29T00:45:24.067Z,11.96
2023-09-29T00:46:23.880Z,11.94
2023-09-29T00:47:23.834Z,12.05
2023-09-29T00:48:24.133Z,11.93
2023-09-29T00:49:23.796Z,11.82
2023-09-29T00:50:23.836Z,12.01
2023-09-29T00:51:23.808Z,11.85
2023-09-29T00:52:23.765Z,11.94
2023-09-29T00:53:23.796Z,11.85
2023-09-29T00:54:23.742Z,11.87
2023-09-29T00:55:23.732Z,11.84
2023-09-29T00:56:23.756Z,11.81
2023-09-29T00:57:23.740Z,11.84
2023-09-29T00:58:23.700Z,11.87
2023-09-29T00:59:23.691Z,11.78
2023-09-29T01:00:23.679Z,11.82
2023-09-29T01:01:23.720Z,11.81
2023-09-29T01:02:23.737Z,12.00
2023-09-29T01:03:24.058Z,11.94
2023-09-29T01:04:23.678Z,11.94
2023-09-29T01:05:23.679Z,11.81
2023-09-29T01:06:23.617Z,11.87
2023-09-29T01:07:23.607Z,11.82
2023-09-29T01:08:23.632Z,11.94
2023-09-29T01:09:23.594Z,11.85
2023-09-29T01:10:23.588Z,11.84
2023-09-29T01:11:23.610Z,11.87
2023-09-29T01:12:23.553Z,11.85
2023-09-29T01:13:23.545Z,11.78
2023-09-29T01:14:23.644Z,11.87
2023-09-29T01:15:23.581Z,11.85
2023-09-29T01:16:23.561Z,11.79
2023-09-29T01:17:23.599Z,11.77
2023-09-29T01:18:23.589Z,11.77
2023-09-29T01:19:23.481Z,11.84
2023-09-29T01:20:23.554Z,11.81
2023-09-29T01:21:23.462Z,11.81
2023-09-29T01:22:23.462Z,11.84
2023-09-29T01:23:23.444Z,11.87
2023-09-29T01:24:23.424Z,11.82
2023-09-29T01:25:23.425Z,11.87
2023-09-29T01:26:23.414Z,11.81
2023-09-29T01:27:23.411Z,11.85
2023-09-29T01:28:23.377Z,11.82
2023-09-29T01:29:23.436Z,11.81
2023-09-29T01:30:23.359Z,11.81
2023-09-29T01:31:23.394Z,11.78
2023-09-29T01:32:23.406Z,11.75
2023-09-29T01:33:23.401Z,11.74
2023-09-29T01:34:23.357Z,11.66
2023-09-29T01:35:23.358Z,11.69
2023-09-29T01:36:23.295Z,11.72
2023-09-29T01:37:23.294Z,11.63
2023-09-29T01:38:23.315Z,11.78
2023-09-29T01:39:23.273Z,11.60
2023-09-29T01:40:23.252Z,11.74
2023-09-29T01:41:23.297Z,11.70
2023-09-29T01:42:23.224Z,11.78
2023-09-29T01:43:23.219Z,11.84
2023-09-29T01:44:23.252Z,11.81
2023-09-29T01:45:23.197Z,11.82
2023-09-29T01:46:23.197Z,11.90
2023-09-29T01:47:23.321Z,11.82
2023-09-29T01:48:23.327Z,11.82
2023-09-29T01:49:23.355Z,11.93
2023-09-29T01:50:23.229Z,11.81
2023-09-29T01:51:23.195Z,11.72
2023-09-29T01:52:23.120Z,11.81
2023-09-29T01:53:23.108Z,11.79
2023-09-29T01:54:23.095Z,11.74
2023-09-29T01:55:23.092Z,11.78
2023-09-29T01:56:23.140Z,11.72
2023-09-29T01:57:23.068Z,11.84
2023-09-29T01:58:23.074Z,11.90
2023-09-29T01:59:23.051Z,11.87
2023-09-29T02:00:23.027Z,11.90
2023-09-29T02:01:23.057Z,11.82
2023-09-29T02:02:23.063Z,11.88
2023-09-29T02:03:23.082Z,11.87
2023-09-29T02:04:23.009Z,11.81
2023-09-29T02:05:23.018Z,11.79
2023-09-29T02:06:23.090Z,11.70
2023-09-29T02:07:22.962Z,11.87
2023-09-29T02:08:22.944Z,11.69
2023-09-29T02:09:22.965Z,11.77
2023-09-29T02:10:22.929Z,11.79
2023-09-29T02:11:22.910Z,11.67
2023-09-29T02:12:22.943Z,11.90
2023-09-29T02:13:22.904Z,11.81
2023-09-29T02:14:22.866Z,11.79
2023-09-29T02:15:22.872Z,11.78
2023-09-29T02:16:22.849Z,11.82
2023-09-29T02:17:22.845Z,11.75
2023-09-29T02:18:22.996Z,11.62
2023-09-29T02:19:22.858Z,11.67
2023-09-29T02:20:22.818Z,11.70
2023-09-29T02:21:22.824Z,11.63
2023-09-29T02:22:23.176Z,11.69
2023-09-29T02:23:22.759Z,11.72
2023-09-29T02:24:22.757Z,11.63
2023-09-29T02:25:22.739Z,11.64
2023-09-29T02:26:22.737Z,11.60
2023-09-29T02:27:22.735Z,11.56
2023-09-29T02:28:22.715Z,11.54
2023-09-29T02:29:22.686Z,11.42
2023-09-29T02:30:22.682Z,11.42
2023-09-29T02:31:22.733Z,11.44
2023-09-29T02:32:22.658Z,11.62
2023-09-29T02:33:22.682Z,11.44
2023-09-29T02:34:22.641Z,11.46
2023-09-29T02:35:22.661Z,11.49
2023-09-29T02:36:22.604Z,11.59
2023-09-29T02:37:22.608Z,11.60
2023-09-29T02:38:22.609Z,11.63
2023-09-29T02:39:22.578Z,11.67
2023-09-29T02:40:22.568Z,11.64
2023-09-29T02:41:22.555Z,11.64
2023-09-29T02:42:22.554Z,11.64
2023-09-29T02:43:22.543Z,11.57
2023-09-29T02:44:22.516Z,11.63
2023-09-29T02:45:22.521Z,11.60
2023-09-29T02:46:22.561Z,11.46
2023-09-29T02:47:22.522Z,11.59
2023-09-29T02:48:22.651Z,11.45
2023-09-29T02:49:22.460Z,11.49
2023-09-29T02:50:22.453Z,11.60
2023-09-29T02:51:22.450Z,11.62
2023-09-29T02:52:22.443Z,11.44
2023-09-29T02:53:22.430Z,11.44
2023-09-29T02:54:22.435Z,11.38
2023-09-29T02:55:22.399Z,11.36
2023-09-29T02:56:22.382Z,11.38
2023-09-29T02:57:22.502Z,11.41
2023-09-29T02:58:22.390Z,11.41
2023-09-29T02:59:22.352Z,11.42
2023-09-29T03:00:22.338Z,11.33
2023-09-29T03:01:22.375Z,11.45
2023-09-29T03:02:22.316Z,11.33
2023-09-29T03:03:22.489Z,11.49
2023-09-29T03:04:22.320Z,11.39
2023-09-29T03:05:22.667Z,11.56
2023-09-29T03:06:22.270Z,11.51
2023-09-29T03:07:22.264Z,11.51
2023-09-29T03:08:22.269Z,11.59
2023-09-29T03:09:22.247Z,11.42
2023-09-29T03:10:22.255Z,11.59
2023-09-29T03:11:22.227Z,11.53
2023-09-29T03:12:22.208Z,11.49
2023-09-29T03:13:22.215Z,11.46
2023-09-29T03:14:22.181Z,11.54
2023-09-29T03:15:22.193Z,11.38
2023-09-29T03:16:22.287Z,11.41
2023-09-29T03:17:22.191Z,11.59
2023-09-29T03:18:22.180Z,11.53
2023-09-29T03:19:22.131Z,11.67
2023-09-29T03:20:22.147Z,11.63
2023-09-29T03:21:22.122Z,11.66
2023-09-29T03:22:22.096Z,11.69
2023-09-29T03:23:22.088Z,11.78
2023-09-29T03:24:22.076Z,11.64
2023-09-29T03:25:22.228Z,11.69
2023-09-29T03:26:22.097Z,11.67
2023-09-29T03:27:22.081Z,11.62
2023-09-29T03:28:22.029Z,11.75
2023-09-29T03:29:22.023Z,11.62
2023-09-29T03:30:22.013Z,11.62
2023-09-29T03:31:22.014Z,11.66
2023-09-29T03:32:22.005Z,11.66
2023-09-29T03:33:22.139Z,11.67
2023-09-29T03:34:21.963Z,11.53
2023-09-29T03:35:21.955Z,11.56
2023-09-29T03:36:21.943Z,11.54
2023-09-29T03:37:21.949Z,11.46
2023-09-29T03:38:21.924Z,11.60
2023-09-29T03:39:21.913Z,11.54
2023-09-29T03:40:21.914Z,11.60
2023-09-29T03:41:21.889Z,11.63
2023-09-29T03:42:21.897Z,11.56
2023-09-29T03:43:21.889Z,11.57
2023-09-29T03:44:21.862Z,11.54
2023-09-29T03:45:21.867Z,11.59
2023-09-29T03:46:21.859Z,11.69
2023-09-29T03:47:21.826Z,11.67
2023-09-29T03:48:21.885Z,11.72
2023-09-29T03:49:21.821Z,11.63
2023-09-29T03:50:21.789Z,11.72
2023-09-29T03:51:21.780Z,11.66
2023-09-29T03:52:21.769Z,11.53
2023-09-29T03:53:21.754Z,11.41
2023-09-29T03:54:21.741Z,11.41
2023-09-29T03:55:21.767Z,11.41
2023-09-29T03:56:21.733Z,11.30
2023-09-29T03:57:21.717Z,11.49
2023-09-29T03:58:21.721Z,11.42
2023-09-29T03:59:21.697Z,11.33
2023-09-29T04:00:21.740Z,11.41
2023-09-29T04:01:21.726Z,11.28
2023-09-29T04:02:21.845Z,11.35
2023-09-29T04:03:21.745Z,11.42
2023-09-29T04:04:21.646Z,11.27
2023-09-29T04:05:21.657Z,11.27
2023-09-29T04:06:21.716Z,11.28
2023-09-29T04:07:21.593Z,11.28
2023-09-29T04:08:21.598Z,11.23
2023-09-29T04:09:21.579Z,11.41
2023-09-29T04:10:21.558Z,11.38
2023-09-29T04:11:21.559Z,11.33
2023-09-29T04:12:21.537Z,11.39
2023-09-29T04:13:21.540Z,11.39
2023-09-29T04:14:33.837Z,11.39
2023-09-29T04:15:22.620Z,11.36
2023-09-29T04:16:21.510Z,11.38
2023-09-29T04:17:21.482Z,11.48
2023-09-29T04:18:21.529Z,11.46
2023-09-29T04:19:21.467Z,11.41
2023-09-29T04:20:21.452Z,11.39
2023-09-29T04:21:21.460Z,11.41
2023-09-29T04:22:21.429Z,11.41
2023-09-29T04:23:21.413Z,11.31
2023-09-29T04:24:21.408Z,11.39
2023-09-29T04:25:21.393Z,11.35
2023-09-29T04:26:21.430Z,11.33
2023-09-29T04:27:21.378Z,11.48
2023-09-29T04:28:21.363Z,11.46
2023-09-29T04:29:21.349Z,11.41
2023-09-29T04:30:21.386Z,11.49
2023-09-29T04:31:21.334Z,11.51
2023-09-29T04:32:21.333Z,11.53
2023-09-29T04:33:21.360Z,11.45
2023-09-29T04:34:21.294Z,11.41
2023-09-29T04:35:21.312Z,11.38
2023-09-29T04:36:21.275Z,11.57
2023-09-29T04:37:21.285Z,11.49
2023-09-29T04:38:21.252Z,11.53
2023-09-29T04:39:21.246Z,11.48
2023-09-29T04:40:21.226Z,11.60
2023-09-29T04:41:21.231Z,11.66
2023-09-29T04:42:21.219Z,11.74
2023-09-29T04:43:21.206Z,11.60
2023-09-29T04:44:21.183Z,11.67
2023-09-29T04:45:21.225Z,11.64
2023-09-29T04:46:21.204Z,11.70
2023-09-29T04:47:21.174Z,11.62
2023-09-29T04:48:21.206Z,11.56
2023-09-29T04:49:21.139Z,11.56
2023-09-29T04:50:21.119Z,11.53
2023-09-29T04:51:21.115Z,11.35
2023-09-29T04:52:21.125Z,11.41
2023-09-29T04:53:21.080Z,11.33
2023-09-29T04:54:21.073Z,11.36
2023-09-29T04:55:21.069Z,11.49
2023-09-29T04:56:21.049Z,11.42
2023-09-29T04:57:21.043Z,11.57
2023-09-29T04:58:21.062Z,11.49
2023-09-29T04:59:21.025Z,11.42
2023-09-29T05:00:21.057Z,11.33
2023-09-29T05:01:21.009Z,11.31
2023-09-29T05:02:21.011Z,11.31
2023-09-29T05:03:21.092Z,11.30
2023-09-29T05:04:21.021Z,11.36
2023-09-29T05:05:20.970Z,11.35
2023-09-29T05:06:20.939Z,11.27
2023-09-29T05:07:20.926Z,11.21
2023-09-29T05:08:20.912Z,11.35
2023-09-29T05:09:20.920Z,11.54
2023-09-29T05:10:20.907Z,11.48
2023-09-29T05:11:20.879Z,11.56
2023-09-29T05:12:20.886Z,11.57
2023-09-29T05:13:20.877Z,11.53
2023-09-29T05:14:20.854Z,11.57
2023-09-29T05:15:20.847Z,11.57
2023-09-29T05:16:20.858Z,11.60
2023-09-29T05:17:20.824Z,11.42
2023-09-29T05:18:20.879Z,11.39
2023-09-29T05:19:20.901Z,11.53
2023-09-29T05:20:20.795Z,11.41
2023-09-29T05:21:20.788Z,11.39
2023-09-29T05:22:20.759Z,11.39
2023-09-29T05:23:20.762Z,11.33
2023-09-29T05:24:20.745Z,11.33
2023-09-29T05:25:20.746Z,11.36
2023-09-29T05:26:20.712Z,11.42
2023-09-29T05:27:20.708Z,11.44
2023-09-29T05:28:20.695Z,11.57
2023-09-29T05:29:20.697Z,11.39
2023-09-29T05:30:20.711Z,11.49
2023-09-29T05:31:20.659Z,11.64
2023-09-29T05:32:20.652Z,11.59
2023-09-29T05:33:20.694Z,11.45
2023-09-29T05:34:20.680Z,11.33
2023-09-29T05:35:20.620Z,11.33
2023-09-29T05:36:20.606Z,11.33
2023-09-29T05:37:20.592Z,11.24
2023-09-29T05:38:20.588Z,11.36
2023-09-29T05:39:20.574Z,11.41
2023-09-29T05:40:20.576Z,11.33
2023-09-29T05:41:20.547Z,11.35
2023-09-29T05:42:20.648Z,11.28
2023-09-29T05:43:20.536Z,11.36
2023-09-29T05:44:20.555Z,11.51
2023-09-29T05:45:20.534Z,11.57
2023-09-29T05:46:20.553Z,11.69
2023-09-29T05:47:20.532Z,11.66
2023-09-29T05:48:20.529Z,11.75
2023-09-29T05:49:20.463Z,11.75
2023-09-29T05:50:20.538Z,11.70
2023-09-29T05:51:20.466Z,11.64
2023-09-29T05:52:20.441Z,11.84
2023-09-29T05:53:20.413Z,11.69
2023-09-29T05:54:20.401Z,11.79
2023-09-29T05:55:20.391Z,11.64
2023-09-29T05:56:20.398Z,11.72
2023-09-29T05:57:20.384Z,11.57
2023-09-29T05:58:20.361Z,11.64
2023-09-29T05:59:20.365Z,11.63
2023-09-29T06:00:20.356Z,11.60
2023-09-29T06:01:20.355Z,11.62
2023-09-29T06:02:20.344Z,11.62
2023-09-29T06:03:20.388Z,11.69
2023-09-29T06:04:20.416Z,11.77
2023-09-29T06:05:20.276Z,11.87
2023-09-29T06:06:20.290Z,11.93
2023-09-29T06:07:20.278Z,11.84
2023-09-29T06:08:20.246Z,11.85
2023-09-29T06:09:20.273Z,11.81
2023-09-29T06:10:20.242Z,11.87
2023-09-29T06:11:20.211Z,11.94
2023-09-29T06:12:20.200Z,11.81
2023-09-29T06:13:20.187Z,11.82
2023-09-29T06:14:20.178Z,11.97
2023-09-29T06:15:20.180Z,11.94
2023-09-29T06:16:20.300Z,11.97
2023-09-29T06:17:20.144Z,11.97
2023-09-29T06:18:20.185Z,11.87
2023-09-29T06:19:20.171Z,11.98
2023-09-29T06:20:20.330Z,12.03
2023-09-29T06:21:20.153Z,12.04
2023-09-29T06:22:20.117Z,12.01
2023-09-29T06:23:20.077Z,12.11
2023-09-29T06:24:20.137Z,12.03
2023-09-29T06:25:20.060Z,12.08
2023-09-29T06:26:20.064Z,12.03
2023-09-29T06:27:20.106Z,12.03
2023-09-29T06:28:20.030Z,12.11
2023-09-29T06:29:20.021Z,12.25
2023-09-29T06:30:20.027Z,12.15
2023-09-29T06:31:19.993Z,12.19
2023-09-29T06:32:19.996Z,12.26
2023-09-29T06:33:20.071Z,12.29
2023-09-29T06:34:20.077Z,12.37
2023-09-29T06:35:19.970Z,12.51
2023-09-29T06:36:19.936Z,12.96
2023-09-29T06:37:19.930Z,13.04
2023-09-29T06:38:19.934Z,13.28
2023-09-29T06:39:19.904Z,13.50
2023-09-29T06:40:19.897Z,13.63
2023-09-29T06:41:19.899Z,13.87
2023-09-29T06:42:19.873Z,14.12
2023-09-29T06:43:19.872Z,14.35
2023-09-29T06:44:19.857Z,14.64
2023-09-29T06:45:19.845Z,14.72
2023-09-29T06:46:19.875Z,14.85
2023-09-29T06:47:19.812Z,15.04
2023-09-29T06:48:20.996Z,15.28
2023-09-29T06:49:19.797Z,15.56
2023-09-29T06:50:19.785Z,15.67
2023-09-29T06:51:19.789Z,15.80
2023-09-29T06:52:19.764Z,15.70
2023-09-29T06:53:19.769Z,15.60
2023-09-29T06:54:19.857Z,15.64
2023-09-29T06:55:19.751Z,15.76
2023-09-29T06:56:19.719Z,15.34
2023-09-29T06:57:19.788Z,15.38
2023-09-29T06:58:19.703Z,15.35
2023-09-29T06:59:19.687Z,15.64
2023-09-29T07:00:19.744Z,15.37
2023-09-29T07:01:19.672Z,15.64
2023-09-29T07:02:19.657Z,15.86
2023-09-29T07:03:19.786Z,15.95
2023-09-29T07:04:19.823Z,15.70
2023-09-29T07:05:19.618Z,15.88
2023-09-29T07:06:19.656Z,15.77
2023-09-29T07:07:19.598Z,15.85
2023-09-29T07:08:19.586Z,15.92
2023-09-29T07:09:19.640Z,15.95
2023-09-29T07:10:19.611Z,16.11
2023-09-29T07:11:19.571Z,16.48
2023-09-29T07:12:19.545Z,16.88
2023-09-29T07:13:19.532Z,17.06
2023-09-29T07:14:19.522Z,16.87
2023-09-29T07:15:19.519Z,16.88
2023-09-29T07:16:19.638Z,16.90
2023-09-29T07:17:19.520Z,17.17
2023-09-29T07:18:19.523Z,16.63
2023-09-29T07:19:19.469Z,16.17
2023-09-29T07:20:19.454Z,16.22
2023-09-29T07:21:19.453Z,16.57
2023-09-29T07:22:19.452Z,17.05
2023-09-29T07:23:19.433Z,17.27
2023-09-29T07:24:19.452Z,17.28
2023-09-29T07:25:19.405Z,17.05
2023-09-29T07:26:19.421Z,16.87
2023-09-29T07:27:20.338Z,16.78
2023-09-29T07:28:19.375Z,16.85
2023-09-29T07:29:19.356Z,16.62
2023-09-29T07:30:19.408Z,16.51
2023-09-29T07:31:19.362Z,16.30
2023-09-29T07:32:19.348Z,16.32
2023-09-29T07:33:19.576Z,16.55
2023-09-29T07:34:19.307Z,16.69
2023-09-29T07:35:19.294Z,16.73
2023-09-29T07:36:19.358Z,16.69
2023-09-29T07:37:19.271Z,16.78
2023-09-29T07:38:19.636Z,16.45
2023-09-29T07:39:19.443Z,16.36
2023-09-29T07:40:19.249Z,16.59
2023-09-29T07:41:19.240Z,16.96
2023-09-29T07:42:19.245Z,17.12
2023-09-29T07:43:19.232Z,16.88
2023-09-29T07:44:19.195Z,16.84
2023-09-29T07:45:19.189Z,16.81
2023-09-29T07:46:19.229Z,16.69
2023-09-29T07:47:19.169Z,16.92
2023-09-29T07:48:19.262Z,17.07
2023-09-29T07:49:19.254Z,17.14
2023-09-29T07:50:19.143Z,17.40
2023-09-29T07:51:19.156Z,17.45
2023-09-29T07:52:19.109Z,17.70
2023-09-29T07:53:19.099Z,17.91
2023-09-29T07:54:19.092Z,18.20
2023-09-29T07:55:19.101Z,18.11
2023-09-29T07:56:19.068Z,17.95
2023-09-29T07:57:19.059Z,18.01
2023-09-29T07:58:19.074Z,18.09
2023-09-29T07:59:19.031Z,18.60
2023-09-29T08:00:19.044Z,19.05
2023-09-29T08:01:19.068Z,18.66
2023-09-29T08:02:19.001Z,18.78
2023-09-29T08:03:19.155Z,18.56
2023-09-29T08:04:19.264Z,18.94
2023-09-29T08:05:18.966Z,19.23
2023-09-29T08:06:19.159Z,19.17
2023-09-29T08:07:18.950Z,18.84
2023-09-29T08:08:18.936Z,19.01
2023-09-29T08:09:18.969Z,19.12
2023-09-29T08:10:18.908Z,19.16
2023-09-29T08:11:18.893Z,19.38
2023-09-29T08:12:18.915Z,19.40
2023-09-29T08:13:18.876Z,19.35
2023-09-29T08:14:18.900Z,19.40
2023-09-29T08:15:18.871Z,19.67
2023-09-29T08:16:18.871Z,19.70
2023-09-29T08:17:18.839Z,19.68
2023-09-29T08:18:18.895Z,19.78
2023-09-29T08:19:18.811Z,19.87
2023-09-29T08:20:18.904Z,19.85
2023-09-29T08:21:18.813Z,19.72
2023-09-29T08:22:26.619Z,19.60
2023-09-29T08:23:19.761Z,19.28
2023-09-29T08:24:18.794Z,19.25
2023-09-29T08:25:18.751Z,19.27
2023-09-29T08:26:18.854Z,19.13
2023-09-29T08:27:18.767Z,19.01
2023-09-29T08:28:18.714Z,19.24
2023-09-29T08:29:18.705Z,19.28
2023-09-29T08:30:19.046Z,18.97
2023-09-29T08:31:18.763Z,18.94
2023-09-29T08:32:18.705Z,19.07
2023-09-29T08:33:32.748Z,19.30
2023-09-29T08:34:19.695Z,19.21
2023-09-29T08:35:18.642Z,19.57
2023-09-29T08:36:18.674Z,19.79
2023-09-29T08:37:18.626Z,19.90
2023-09-29T08:38:18.626Z,20.13
2023-09-29T08:39:18.644Z,19.49
2023-09-29T08:40:18.592Z,19.31
2023-09-29T08:41:18.582Z,19.40
2023-09-29T08:42:18.629Z,19.05
2023-09-29T08:43:18.564Z,19.16
2023-09-29T08:44:18.542Z,19.17
2023-09-29T08:45:18.632Z,19.06
2023-09-29T08:46:18.590Z,19.38
2023-09-29T08:47:18.516Z,19.79
2023-09-29T08:48:18.615Z,19.97
2023-09-29T08:49:18.488Z,19.78
2023-09-29T08:50:18.483Z,19.65
2023-09-29T08:51:18.479Z,19.60
2023-09-29T08:52:18.461Z,19.67
2023-09-29T08:53:18.460Z,19.94
2023-09-29T08:54:18.501Z,19.65
2023-09-29T08:55:18.427Z,19.35
2023-09-29T08:56:18.416Z,19.21
2023-09-29T08:57:18.465Z,19.35
2023-09-29T08:58:18.414Z,19.46
2023-09-29T08:59:18.387Z,19.76
2023-09-29T09:00:18.462Z,19.30
2023-09-29T09:01:18.803Z,19.16
2023-09-29T09:02:18.372Z,19.39
2023-09-29T09:03:18.496Z,19.71
2023-09-29T09:04:18.506Z,19.87
2023-09-29T09:05:18.335Z,20.04
2023-09-29T09:06:18.376Z,20.20
2023-09-29T09:07:18.293Z,19.71
2023-09-29T09:08:18.294Z,19.61
2023-09-29T09:09:18.319Z,19.57
2023-09-29T09:10:30.831Z,19.72
2023-09-29T09:11:19.279Z,20.01
2023-09-29T09:12:18.274Z,20.04
2023-09-29T09:13:18.230Z,19.86
2023-09-29T09:14:18.230Z,19.72
2023-09-29T09:15:18.239Z,19.82
2023-09-29T09:16:18.241Z,20.01
2023-09-29T09:17:18.206Z,20.22
2023-09-29T09:18:18.262Z,19.87
2023-09-29T09:19:18.188Z,20.07
2023-09-29T09:20:18.156Z,20.27
2023-09-29T09:21:18.186Z,20.37
2023-09-29T09:22:21.215Z,19.64
2023-09-29T09:23:19.123Z,19.97
2023-09-29T09:24:18.147Z,19.71
2023-09-29T09:25:18.101Z,19.79
2023-09-29T09:26:18.104Z,19.97
2023-09-29T09:27:18.097Z,20.20
2023-09-29T09:28:18.082Z,20.23
2023-09-29T09:29:18.129Z,20.04
2023-09-29T09:30:18.054Z,20.00
2023-09-29T09:31:18.127Z,19.76
2023-09-29T09:32:18.027Z,19.94
2023-09-29T09:33:18.149Z,20.34
2023-09-29T09:34:18.044Z,20.22
2023-09-29T09:35:17.997Z,20.60
2023-09-29T09:36:18.019Z,20.88
2023-09-29T09:37:17.972Z,20.90
2023-09-29T09:38:17.976Z,20.90
2023-09-29T09:39:18.106Z,20.79
2023-09-29T09:40:17.937Z,20.91
2023-09-29T09:41:17.935Z,20.57
2023-09-29T09:42:17.955Z,20.22
2023-09-29T09:43:17.927Z,20.13
2023-09-29T09:44:17.892Z,20.61
2023-09-29T09:45:17.969Z,20.54
2023-09-29T09:46:17.981Z,20.64
2023-09-29T09:47:17.861Z,20.50
2023-09-29T09:48:18.056Z,20.48
2023-09-29T09:49:17.841Z,20.87
2023-09-29T09:50:17.861Z,20.90
2023-09-29T09:51:17.902Z,20.96
2023-09-29T09:52:17.822Z,20.85
2023-09-29T09:53:17.813Z,21.34
2023-09-29T09:54:17.817Z,21.27
2023-09-29T09:55:17.774Z,21.05
2023-09-29T09:56:17.760Z,21.06
2023-09-29T09:57:17.825Z,21.18
2023-09-29T09:58:17.770Z,21.24
2023-09-29T09:59:17.752Z,21.46
2023-09-29T10:00:17.779Z,21.45
2023-09-29T10:01:17.747Z,21.40
2023-09-29T10:02:17.696Z,21.21
2023-09-29T10:03:18.045Z,21.48
2023-09-29T10:04:17.778Z,21.52
2023-09-29T10:05:17.716Z,21.31
2023-09-29T10:06:17.716Z,21.27
2023-09-29T10:07:17.642Z,21.09
2023-09-29T10:08:17.634Z,21.19
2023-09-29T10:09:17.651Z,21.51
2023-09-29T10:10:17.629Z,21.27
2023-09-29T10:11:17.609Z,21.52
2023-09-29T10:12:17.704Z,21.58
2023-09-29T10:13:17.576Z,21.70
2023-09-29T10:14:17.569Z,21.46
2023-09-29T10:15:17.603Z,20.87
2023-09-29T10:16:17.609Z,20.82
2023-09-29T10:17:17.535Z,20.79
2023-09-29T10:18:17.658Z,20.90
2023-09-29T10:19:17.514Z,20.34
2023-09-29T10:20:17.504Z,20.33
2023-09-29T10:21:17.524Z,19.95
2023-09-29T10:22:17.520Z,20.22
2023-09-29T10:23:17.466Z,20.27
2023-09-29T10:24:17.480Z,20.20
2023-09-29T10:25:17.454Z,20.38
2023-09-29T10:26:17.546Z,20.73
2023-09-29T10:27:17.450Z,20.82
2023-09-29T10:28:17.413Z,20.94
2023-09-29T10:29:17.405Z,20.46
2023-09-29T10:30:17.669Z,20.17
2023-09-29T10:31:17.447Z,19.90
2023-09-29T10:32:17.392Z,20.01
2023-09-29T10:33:17.434Z,19.90
2023-09-29T10:34:17.349Z,20.25
2023-09-29T10:35:17.388Z,20.58
2023-09-29T10:36:17.349Z,20.33
2023-09-29T10:37:17.338Z,20.10
2023-09-29T10:38:17.336Z,20.00
2023-09-29T10:39:17.336Z,20.05
2023-09-29T10:40:17.294Z,20.25
2023-09-29T10:41:33.476Z,20.38
2023-09-29T10:42:18.355Z,20.64
2023-09-29T10:43:17.250Z,20.96
2023-09-29T10:44:17.236Z,21.27
2023-09-29T10:45:17.286Z,21.19
2023-09-29T10:46:17.244Z,21.24
2023-09-29T10:47:17.224Z,20.94
2023-09-29T10:48:17.354Z,21.18
2023-09-29T10:49:17.242Z,21.19
2023-09-29T10:50:17.173Z,21.42
2023-09-29T10:51:17.202Z,21.09
2023-09-29T10:52:17.167Z,20.88
2023-09-29T10:53:17.151Z,20.94
2023-09-29T10:54:17.232Z,21.28
2023-09-29T10:55:17.174Z,21.58
2023-09-29T10:56:17.120Z,21.70
2023-09-29T10:57:17.133Z,21.71
2023-09-29T10:58:17.085Z,21.73
2023-09-29T10:59:17.094Z,21.99
2023-09-29T11:00:17.090Z,22.02
2023-09-29T11:01:17.070Z,22.06
2023-09-29T11:02:17.045Z,22.02
2023-09-29T11:03:17.149Z,21.43
2023-09-29T11:04:17.082Z,21.59
2023-09-29T11:05:17.034Z,22.14
2023-09-29T11:06:17.026Z,22.41
2023-09-29T11:07:17.041Z,22.11
2023-09-29T11:08:16.990Z,22.06
2023-09-29T11:09:17.057Z,22.19
2023-09-29T11:10:16.980Z,22.30
2023-09-29T11:11:16.948Z,22.52
2023-09-29T11:12:16.982Z,22.85
2023-09-29T11:13:16.924Z,23.19
2023-09-29T11:14:17.037Z,23.38
2023-09-29T11:15:16.988Z,23.63
2023-09-29T11:16:17.028Z,23.69
2023-09-29T11:17:16.877Z,23.72
2023-09-29T11:18:16.940Z,23.26
2023-09-29T11:19:16.913Z,23.06
2023-09-29T11:20:16.848Z,23.04
2023-09-29T11:21:16.911Z,22.67
2023-09-29T11:22:16.848Z,23.00
2023-09-29T11:23:16.812Z,22.94
2023-09-29T11:24:16.822Z,22.60
2023-09-29T11:25:16.801Z,22.49
2023-09-29T11:26:16.802Z,22.66
2023-09-29T11:27:16.863Z,22.06
2023-09-29T11:28:16.759Z,21.74
2023-09-29T11:29:16.745Z,21.99
2023-09-29T11:30:16.767Z,22.09
2023-09-29T11:31:16.893Z,21.90
2023-09-29T11:32:16.720Z,22.24
2023-09-29T11:33:16.835Z,22.60
2023-09-29T11:34:16.705Z,22.54
2023-09-29T11:35:16.696Z,22.23
2023-09-29T11:36:16.751Z,22.33
2023-09-29T11:37:16.690Z,22.23
2023-09-29T11:38:16.657Z,22.29
2023-09-29T11:39:16.703Z,22.29
2023-09-29T11:40:16.646Z,22.70
2023-09-29T11:41:16.638Z,22.91
2023-09-29T11:42:16.681Z,22.85
2023-09-29T11:43:16.607Z,22.56
2023-09-29T11:44:16.604Z,22.51
2023-09-29T11:45:16.628Z,22.41
2023-09-29T11:46:16.611Z,22.69
2023-09-29T11:47:16.572Z,23.12
2023-09-29T11:48:16.604Z,23.15
2023-09-29T11:49:16.555Z,22.61
2023-09-29T11:50:16.534Z,22.75
2023-09-29T11:51:16.564Z,22.72
2023-09-29T11:52:16.566Z,22.74
2023-09-29T11:53:16.530Z,23.12
2023-09-29T11:54:16.525Z,23.25
2023-09-29T11:55:16.493Z,23.14
2023-09-29T11:56:16.468Z,23.38
2023-09-29T11:57:16.518Z,23.52
2023-09-29T11:58:16.504Z,23.72
2023-09-29T11:59:16.453Z,23.67
2023-09-29T12:00:16.488Z,23.79
2023-09-29T12:01:16.557Z,23.89
2023-09-29T12:02:16.410Z,23.82
2023-09-29T12:03:16.462Z,23.64
2023-09-29T12:04:16.500Z,23.64
2023-09-29T12:05:16.377Z,23.81
2023-09-29T12:06:16.381Z,23.79
2023-09-29T12:07:16.369Z,23.52
2023-09-29T12:08:16.354Z,23.49
2023-09-29T12:09:16.357Z,23.54
2023-09-29T12:10:16.330Z,23.59
2023-09-29T12:11:16.315Z,23.64
2023-09-29T12:12:16.335Z,23.87
2023-09-29T12:13:16.321Z,24.00
2023-09-29T12:14:16.309Z,24.11
2023-09-29T12:15:16.360Z,24.04
2023-09-29T12:16:16.435Z,24.26
2023-09-29T12:17:16.244Z,24.08
2023-09-29T12:18:16.327Z,23.81
2023-09-29T12:19:16.223Z,23.93
2023-09-29T12:20:16.225Z,23.87
2023-09-29T12:21:16.217Z,23.99
2023-09-29T12:22:16.201Z,23.72
2023-09-29T12:23:16.184Z,23.72
2023-09-29T12:24:16.429Z,23.26
2023-09-29T12:25:16.169Z,23.23
2023-09-29T12:26:16.163Z,23.41
2023-09-29T12:27:16.214Z,23.56
2023-09-29T12:28:16.200Z,23.96
2023-09-29T12:29:16.112Z,24.02
2023-09-29T12:30:16.189Z,23.79
2023-09-29T12:31:16.107Z,23.60
2023-09-29T12:32:16.153Z,23.63
2023-09-29T12:33:17.190Z,23.57
2023-09-29T12:34:16.054Z,23.41
2023-09-29T12:35:16.083Z,23.41
2023-09-29T12:36:16.101Z,23.49
2023-09-29T12:37:16.018Z,23.74
2023-09-29T12:38:16.024Z,23.71
2023-09-29T12:39:16.100Z,23.90
2023-09-29T12:40:15.988Z,24.21
2023-09-29T12:41:15.978Z,23.67
2023-09-29T12:42:16.102Z,23.12
2023-09-29T12:43:15.954Z,22.99
2023-09-29T12:44:15.944Z,22.91
2023-09-29T12:45:16.022Z,22.97
2023-09-29T12:46:16.028Z,22.72
2023-09-29T12:47:15.917Z,22.94
2023-09-29T12:48:16.006Z,23.26
2023-09-29T12:49:15.881Z,22.97
2023-09-29T12:50:15.873Z,22.93
2023-09-29T12:51:20.126Z,22.82
2023-09-29T12:52:16.908Z,22.52